Time;durP1;ratioP1;P1;durP2;ratioP2;P2;SDS_P1;SDS_P2;PMS_P1;PMS_P2;Temp;Humidity;BMP_temperature;BMP_pressure;BME280_temperature;BME280_humidity;BME280_pressure;Samples;Min_cycle;Max_cycle;Signal;HPM_P1;HPM_P2
2021/10/30 00:02:21;;;;;;;;;1.00;0.00;;;;;13.49;76.28;99936.94;5083257;28;45298;-83
2021/10/30 00:04:46;;;;;;;;;2.00;0.75;;;;;13.55;76.37;99947.28;5084103;28;45330;-82
2021/10/30 00:07:15;;;;;;;;;0.50;0.50;;;;;13.53;76.17;99932.50;5083593;28;46030;-83
2021/10/30 00:09:41;;;;;;;;;0.00;0.00;;;;;13.39;76.29;99915.25;5075708;28;45332;-82
2021/10/30 00:12:07;;;;;;;;;0.50;0.50;;;;;13.30;76.16;99891.91;5068320;28;45292;-82
2021/10/30 00:14:32;;;;;;;;;1.00;1.00;;;;;13.38;76.21;99902.19;5082235;28;45365;-82
2021/10/30 00:16:58;;;;;;;;;1.00;1.00;;;;;13.34;76.16;99896.19;5083161;28;46290;-82
2021/10/30 00:19:23;;;;;;;;;0.00;0.00;;;;;13.37;76.49;99908.31;5063562;28;45417;-82
2021/10/30 00:21:52;;;;;;;;;0.75;0.00;;;;;13.26;76.10;99882.38;5082693;28;45413;-82
2021/10/30 00:24:18;;;;;;;;;1.00;1.00;;;;;13.39;76.17;99903.94;5083549;28;45331;-82
2021/10/30 00:26:43;;;;;;;;;0.75;0.75;;;;;13.40;76.58;99896.09;5076482;28;45562;-83
2021/10/30 00:29:08;;;;;;;;;0.00;0.00;;;;;13.39;76.29;99885.66;5081288;28;45256;-80
2021/10/30 00:31:34;;;;;;;;;1.75;0.25;;;;;13.19;76.45;99860.69;5083021;28;45240;-82
2021/10/30 00:33:59;;;;;;;;;0.00;0.00;;;;;13.49;76.71;99899.41;5065357;28;45508;-82
2021/10/30 00:36:24;;;;;;;;;1.00;1.00;;;;;13.27;76.53;99868.41;5082708;28;46325;-82
2021/10/30 00:38:50;;;;;;;;;0.00;0.00;;;;;13.32;76.95;99873.56;5083075;28;45259;-83
2021/10/30 00:41:15;;;;;;;;;0.75;0.75;;;;;13.30;76.11;99869.22;5082804;28;45254;-83
2021/10/30 00:43:42;;;;;;;;;0.00;0.00;;;;;13.35;76.70;99876.97;5083302;28;45291;-80
2021/10/30 00:46:07;;;;;;;;;0.00;0.00;;;;;13.42;76.78;99880.38;5081082;28;47912;-82
2021/10/30 00:48:32;;;;;;;;;0.00;0.00;;;;;13.35;76.62;99876.13;5061930;28;45330;-82
2021/10/30 00:50:59;;;;;;;;;2.00;0.00;;;;;13.23;76.83;99841.47;5044496;27;45281;-80
2021/10/30 00:53:30;;;;;;;;;0.00;0.00;;;;;13.32;76.57;99848.28;5062362;28;45339;-80
2021/10/30 00:56:00;;;;;;;;;1.00;1.00;;;;;13.20;76.89;99823.22;5061698;28;45493;-82
2021/10/30 00:58:28;;;;;;;;;0.00;0.00;;;;;13.20;76.76;99820.59;5057805;28;45450;-81
2021/10/30 01:00:54;;;;;;;;;0.00;0.00;;;;;13.41;76.95;99855.97;5078790;28;45285;-81
2021/10/30 01:03:20;;;;;;;;;0.00;0.00;;;;;13.41;76.81;99855.97;5082198;28;45389;-80
2021/10/30 01:05:45;;;;;;;;;1.75;1.75;;;;;13.35;76.67;99836.94;5082002;28;46930;-81
2021/10/30 01:08:13;;;;;;;;;0.00;0.00;;;;;13.51;76.90;99869.78;5082534;28;45291;-81
2021/10/30 01:10:39;;;;;;;;;0.00;0.00;;;;;13.48;77.06;99861.09;5082670;28;45323;-80
2021/10/30 01:13:05;;;;;;;;;0.00;0.00;;;;;13.29;76.88;99827.41;5081972;28;45479;-81
2021/10/30 01:15:30;;;;;;;;;0.00;0.00;;;;;13.51;77.19;99859.31;5082221;28;45294;-82
2021/10/30 01:17:56;;;;;;;;;0.00;0.00;;;;;13.37;77.24;99828.16;5082430;28;45340;-82
2021/10/30 01:20:25;;;;;;;;;1.00;0.50;;;;;13.35;77.30;99816.88;5082582;28;45429;-81
2021/10/30 01:22:51;;;;;;;;;0.25;0.00;;;;;13.40;77.33;99830.72;5082503;28;45453;-81
2021/10/30 01:25:21;;;;;;;;;0.00;0.00;;;;;13.54;77.17;99850.56;5080851;28;46017;-81
2021/10/30 01:27:48;;;;;;;;;0.00;0.00;;;;;13.53;77.27;99834.00;5081806;28;45310;-82
2021/10/30 01:30:17;;;;;;;;;0.75;0.75;;;;;13.54;77.20;99840.13;5081865;28;45595;-81
2021/10/30 01:32:52;;;;;;;;;0.00;0.00;;;;;13.56;77.20;99833.09;5082399;28;45379;-81
2021/10/30 01:35:25;;;;;;;;;0.00;0.00;;;;;13.32;77.21;99801.22;5063038;28;47807;-81
2021/10/30 01:37:50;;;;;;;;;1.00;0.00;;;;;13.32;77.19;99792.53;5082120;28;45403;-81
2021/10/30 01:40:15;;;;;;;;;0.00;0.00;;;;;13.34;77.25;99799.47;5081344;28;45345;-81
2021/10/30 01:42:41;;;;;;;;;0.75;0.00;;;;;13.50;77.56;99817.50;5081338;28;45505;-81
2021/10/30 01:45:07;;;;;;;;;0.25;0.00;;;;;13.54;77.11;99813.97;5081635;28;46159;-81
2021/10/30 01:47:32;;;;;;;;;0.00;0.00;;;;;13.58;77.52;99820.00;5081741;28;45583;-81
2021/10/30 01:49:57;;;;;;;;;0.00;0.00;;;;;13.58;77.55;99818.25;5081658;28;45528;-81
2021/10/30 01:52:23;;;;;;;;;0.00;0.00;;;;;13.56;77.27;99806.94;5080904;28;45435;-81
2021/10/30 01:54:48;;;;;;;;;1.00;0.00;;;;;13.51;77.50;99796.56;5063547;28;47154;-81
2021/10/30 01:57:13;;;;;;;;;0.00;0.00;;;;;13.52;77.60;99794.81;5063472;28;45518;-81
2021/10/30 01:59:39;;;;;;;;;0.00;0.00;;;;;13.53;77.63;99793.91;5081567;28;45480;-81
2021/10/30 02:02:04;;;;;;;;;0.00;0.00;;;;;13.57;77.94;99789.50;5081967;28;45537;-81
2021/10/30 02:04:30;;;;;;;;;1.00;0.00;;;;;13.55;78.20;99785.19;5080290;28;47680;-81
2021/10/30 02:06:56;;;;;;;;;0.00;0.00;;;;;13.25;78.04;99742.13;5063156;28;45323;-81
2021/10/30 02:09:21;;;;;;;;;1.00;1.00;;;;;13.46;78.12;99768.75;5081155;28;45390;-81
2021/10/30 02:11:46;;;;;;;;;0.75;0.75;;;;;13.42;78.65;99768.81;5050304;28;45331;-81
2021/10/30 02:14:12;;;;;;;;;0.00;0.00;;;;;13.47;78.58;99778.34;5085168;28;45437;-81
2021/10/30 02:16:37;;;;;;;;;0.50;0.50;;;;;13.30;78.66;99735.06;5086893;28;45348;-81
2021/10/30 02:19:02;;;;;;;;;1.75;0.00;;;;;13.29;78.72;99722.88;5084518;28;45275;-81
2021/10/30 02:21:28;;;;;;;;;0.00;0.00;;;;;13.18;78.93;99713.47;5085063;28;45215;-81
2021/10/30 02:23:53;;;;;;;;;1.00;0.00;;;;;13.42;78.90;99755.72;5066636;28;45466;-81
2021/10/30 02:26:19;;;;;;;;;0.25;0.25;;;;;13.40;79.29;99734.00;5085726;28;45203;-81
2021/10/30 02:28:44;;;;;;;;;0.00;0.00;;;;;13.42;78.87;99733.97;5084735;28;45404;-81
2021/10/30 02:31:09;;;;;;;;;0.00;0.00;;;;;13.25;79.02;99695.09;5084173;28;45227;-81
2021/10/30 02:33:35;;;;;;;;;1.50;0.00;;;;;13.45;78.98;99730.44;5084778;28;46056;-81
2021/10/30 02:36:00;;;;;;;;;0.00;0.00;;;;;13.45;78.98;99723.47;5085104;28;45237;-81
2021/10/30 02:38:26;;;;;;;;;0.00;0.00;;;;;13.33;78.68;99700.16;5066405;28;45475;-81
2021/10/30 02:40:52;;;;;;;;;0.00;0.00;;;;;13.24;79.14;99680.31;5084959;28;45317;-81
2021/10/30 02:43:17;;;;;;;;;0.00;0.00;;;;;13.17;79.18;99669.13;5084913;28;45278;-81
2021/10/30 02:45:42;;;;;;;;;0.00;0.00;;;;;13.21;79.02;99670.78;5084921;28;45468;-81
2021/10/30 02:48:08;;;;;;;;;0.00;0.00;;;;;13.08;79.02;99649.22;5065666;28;45362;-81
2021/10/30 02:50:33;;;;;;;;;0.00;0.00;;;;;13.36;78.79;99695.75;5085277;28;45295;-81
2021/10/30 02:52:58;;;;;;;;;0.00;0.00;;;;;13.26;78.90;99678.53;5082799;27;46218;-81
2021/10/30 02:55:24;;;;;;;;;1.00;0.00;;;;;13.15;79.17;99647.38;5066112;28;45431;-81
2021/10/30 02:57:49;;;;;;;;;0.00;0.00;;;;;13.09;78.94;99650.97;5084557;28;45322;-80
2021/10/30 03:00:16;;;;;;;;;0.00;0.00;;;;;13.09;79.33;99639.66;5084835;28;45290;-80
2021/10/30 03:02:44;;;;;;;;;0.00;0.00;;;;;13.27;79.05;99665.44;5084087;28;46343;-80
2021/10/30 03:05:10;;;;;;;;;0.00;0.00;;;;;13.26;79.36;99657.63;5066186;28;45269;-80
2021/10/30 03:07:36;;;;;;;;;0.00;0.00;;;;;12.89;79.38;99579.06;5084575;28;45390;-81
2021/10/30 03:10:01;;;;;;;;;0.00;0.00;;;;;13.27;79.06;99644.53;5084534;28;45242;-80
2021/10/30 03:12:27;;;;;;;;;0.00;0.00;;;;;13.00;79.21;99601.50;5084125;28;45719;-81
2021/10/30 03:14:52;;;;;;;;;0.50;0.00;;;;;12.99;78.90;99587.56;5084265;28;45309;-81
2021/10/30 03:17:17;;;;;;;;;1.00;0.00;;;;;13.16;78.91;99617.72;5084330;28;45492;-81
2021/10/30 03:19:43;;;;;;;;;0.00;0.00;;;;;13.27;78.80;99627.97;5065808;28;45530;-81
2021/10/30 03:22:08;;;;;;;;;0.00;0.00;;;;;13.10;78.88;99589.09;5083822;28;46035;-81
2021/10/30 03:24:35;;;;;;;;;0.00;0.00;;;;;13.32;78.66;99620.03;5083342;28;45371;-80
2021/10/30 03:27:00;;;;;;;;;2.00;0.00;;;;;13.19;78.72;99594.16;5083935;28;45282;-81
2021/10/30 03:29:25;;;;;;;;;1.50;0.00;;;;;13.20;78.39;99597.63;5065719;28;45320;-81
2021/10/30 03:31:51;;;;;;;;;0.00;0.00;;;;;13.24;78.74;99594.94;5083659;28;45370;-81
2021/10/30 03:34:16;;;;;;;;;0.00;0.00;;;;;13.14;78.43;99559.44;5065138;28;45343;-80
2021/10/30 03:36:41;;;;;;;;;0.00;0.00;;;;;13.39;78.23;99605.94;5065370;28;45264;-81
2021/10/30 03:39:07;;;;;;;;;0.00;0.00;;;;;13.28;78.11;99575.69;5084101;28;45311;-81
2021/10/30 03:41:33;;;;;;;;;0.00;0.00;;;;;13.27;78.04;99570.47;5083944;28;45374;-81
2021/10/30 03:43:58;;;;;;;;;1.25;0.00;;;;;13.41;78.21;99591.94;5083591;28;45478;-80
2021/10/30 03:46:23;;;;;;;;;0.00;0.00;;;;;13.10;78.16;99539.47;5083969;28;45263;-80
2021/10/30 03:48:49;;;;;;;;;0.00;0.00;;;;;13.23;77.87;99559.22;5084377;28;45303;-81
2021/10/30 03:51:14;;;;;;;;;0.00;0.00;;;;;13.42;77.87;99583.19;5082385;28;48175;-81
2021/10/30 03:53:39;;;;;;;;;0.00;0.00;;;;;13.26;77.91;99567.00;5083267;28;45389;-80
2021/10/30 03:56:05;;;;;;;;;0.00;0.00;;;;;13.41;77.48;99583.22;5084005;28;45268;-80
2021/10/30 03:58:31;;;;;;;;;0.25;0.25;;;;;13.26;77.33;99553.09;5066752;28;45607;-81
2021/10/30 04:00:57;;;;;;;;;0.00;0.00;;;;;13.43;77.48;99595.41;5051859;28;47476;-80
2021/10/30 04:03:22;;;;;;;;;0.00;0.00;;;;;13.42;77.63;99598.06;5082361;28;45632;-80
2021/10/30 04:05:48;;;;;;;;;0.00;0.00;;;;;13.22;77.28;99554.88;5083674;28;45586;-81
2021/10/30 04:08:18;;;;;;;;;0.25;0.00;;;;;13.20;77.24;99550.59;5083979;28;45523;-81
2021/10/30 04:10:43;;;;;;;;;0.00;0.00;;;;;13.40;77.11;99579.78;5082072;28;47370;-81
2021/10/30 04:13:09;;;;;;;;;0.50;0.50;;;;;13.45;76.99;99577.06;5064152;28;46688;-81
2021/10/30 04:15:34;;;;;;;;;0.00;0.00;;;;;13.29;77.16;99553.00;5083335;28;45258;-81
2021/10/30 04:17:59;;;;;;;;;0.75;0.00;;;;;13.40;77.36;99566.72;5083356;28;45523;-81
2021/10/30 04:20:36;;;;;;;;;0.00;0.00;;;;;13.24;77.12;99536.56;5083775;28;46083;-81
2021/10/30 04:23:02;;;;;;;;;1.00;0.00;;;;;13.46;76.99;99564.84;5084208;28;45349;-81
2021/10/30 04:25:28;;;;;;;;;0.00;0.00;;;;;13.18;76.87;99527.94;5084297;28;45372;-81
2021/10/30 04:27:53;;;;;;;;;0.00;0.00;;;;;13.22;76.99;99530.50;5083900;28;45523;-81
2021/10/30 04:30:19;;;;;;;;;0.00;0.00;;;;;13.41;77.01;99573.66;5082906;28;45615;-81
2021/10/30 04:32:44;;;;;;;;;0.00;0.00;;;;;13.46;77.57;99577.91;5083422;28;45400;-81
2021/10/30 04:35:11;;;;;;;;;0.50;0.50;;;;;13.32;77.34;99547.69;5084108;28;45379;-81
2021/10/30 04:37:37;;;;;;;;;0.25;0.00;;;;;13.29;77.29;99545.16;5082802;28;45312;-81
2021/10/30 04:40:03;;;;;;;;;0.00;0.00;;;;;13.43;76.94;99577.09;5063863;28;48185;-81
2021/10/30 04:42:29;;;;;;;;;0.00;0.00;;;;;13.29;77.63;99553.00;5079938;28;45279;-81
2021/10/30 04:44:55;;;;;;;;;0.00;0.00;;;;;13.28;77.24;99553.91;5082532;28;45214;-81
2021/10/30 04:47:21;;;;;;;;;0.00;0.00;;;;;13.32;77.49;99546.88;5082166;28;45259;-81
2021/10/30 04:49:48;;;;;;;;;0.25;0.00;;;;;13.39;77.42;99564.97;5086342;27;46354;-82
2021/10/30 04:52:14;;;;;;;;;0.25;0.25;;;;;13.30;77.70;99554.72;5081460;27;45477;-81
2021/10/30 04:54:39;;;;;;;;;0.00;0.00;;;;;13.04;77.53;99515.19;5081629;28;45366;-81
2021/10/30 04:57:05;;;;;;;;;0.00;0.00;;;;;13.32;78.07;99567.78;5080846;28;45337;-82
2021/10/30 04:59:31;;;;;;;;;0.00;0.00;;;;;12.99;78.13;99506.59;5083035;28;45402;-82
2021/10/30 05:01:56;;;;;;;;;0.00;0.00;;;;;12.94;78.29;99495.38;5082724;28;45305;-81
2021/10/30 05:04:22;;;;;;;;;0.00;0.00;;;;;13.19;78.44;99539.28;5083667;28;45535;-81
2021/10/30 05:06:47;;;;;;;;;0.00;0.00;;;;;13.16;78.66;99537.59;5061570;28;45533;-81
2021/10/30 05:09:13;;;;;;;;;1.25;0.75;;;;;13.23;78.87;99537.47;5061100;28;45398;-80
2021/10/30 05:11:38;;;;;;;;;0.25;0.00;;;;;13.09;78.53;99524.69;5062409;28;45209;-81
2021/10/30 05:14:03;;;;;;;;;0.00;0.00;;;;;13.04;78.80;99512.59;5062445;28;45280;-81
2021/10/30 05:16:29;;;;;;;;;0.00;0.00;;;;;13.12;79.13;99538.56;5075680;28;45259;-81
2021/10/30 05:18:54;;;;;;;;;0.00;0.00;;;;;13.05;78.98;99514.28;5063200;28;47684;-81
2021/10/30 05:21:19;;;;;;;;;0.00;0.00;;;;;13.21;79.07;99549.69;5082742;28;45244;-79
2021/10/30 05:23:45;;;;;;;;;0.00;0.00;;;;;13.07;78.67;99521.28;5085014;28;45247;-83
2021/10/30 05:26:11;;;;;;;;;0.00;0.00;;;;;13.22;78.91;99539.22;5066021;28;45505;-78
2021/10/30 05:28:36;;;;;;;;;0.00;0.00;;;;;13.23;79.07;99532.25;5061465;28;48011;-79
2021/10/30 05:31:02;;;;;;;;;0.00;0.00;;;;;13.14;79.19;99522.84;5060804;28;45444;-79
2021/10/30 05:33:28;;;;;;;;;0.00;0.00;;;;;13.14;79.22;99518.47;5078909;28;45709;-80
2021/10/30 05:35:53;;;;;;;;;0.00;0.00;;;;;13.01;78.99;99502.19;5080094;28;45424;-78
2021/10/30 05:38:19;;;;;;;;;0.00;0.00;;;;;13.04;79.07;99499.53;5079838;28;45398;-78
2021/10/30 05:40:46;;;;;;;;;0.00;0.00;;;;;13.12;79.39;99519.41;5065410;28;45685;-79
2021/10/30 05:43:12;;;;;;;;;0.25;0.25;;;;;13.20;79.41;99530.53;5080543;28;45580;-82
2021/10/30 05:45:43;;;;;;;;;0.00;0.00;;;;;13.24;79.19;99531.34;5073527;28;45330;-78
2021/10/30 05:48:10;;;;;;;;;0.00;0.00;;;;;13.28;79.54;99535.59;5061361;28;48287;-81
2021/10/30 05:50:37;;;;;;;;;0.00;0.00;;;;;13.05;79.39;99503.00;5078053;28;45521;-79
2021/10/30 05:53:02;;;;;;;;;1.00;0.00;;;;;13.27;79.40;99540.00;5082718;28;45414;-78
2021/10/30 05:55:28;;;;;;;;;0.00;0.00;;;;;13.18;79.29;99512.28;5085166;28;45601;-77
2021/10/30 05:57:53;;;;;;;;;0.00;0.00;;;;;13.16;79.54;99521.03;5084820;28;45425;-78
2021/10/30 06:00:19;;;;;;;;;0.00;0.00;;;;;13.00;79.46;99487.44;5084964;27;45475;-77
2021/10/30 06:02:44;;;;;;;;;0.00;0.00;;;;;13.29;79.67;99521.63;5064875;28;45339;-78
2021/10/30 06:05:10;;;;;;;;;0.00;0.00;;;;;13.30;79.82;99521.59;5084144;28;45481;-78
2021/10/30 06:07:35;;;;;;;;;0.00;0.00;;;;;13.11;79.61;99487.19;5083706;28;46055;-78
2021/10/30 06:10:01;;;;;;;;;0.00;0.00;;;;;13.22;79.34;99505.25;5084281;28;45303;-78
2021/10/30 06:12:27;;;;;;;;;0.00;0.00;;;;;13.29;79.95;99513.78;5081233;28;45443;-79
2021/10/30 06:14:52;;;;;;;;;1.00;0.00;;;;;13.29;79.85;99516.41;5085842;28;45257;-78
2021/10/30 06:17:18;;;;;;;;;0.00;0.00;;;;;13.35;79.96;99536.34;5085204;28;45401;-78
2021/10/30 06:19:43;;;;;;;;;0.00;0.00;;;;;13.23;79.75;99512.19;5074844;28;47202;-77
2021/10/30 06:22:09;;;;;;;;;0.00;0.00;;;;;13.16;79.93;99490.56;5078037;28;45781;-77
2021/10/30 06:24:34;;;;;;;;;0.00;0.00;;;;;13.19;79.98;99492.25;5081928;28;45421;-78
2021/10/30 06:27:00;;;;;;;;;0.00;0.00;;;;;13.28;79.93;99509.47;5075690;28;45520;-76
2021/10/30 06:29:28;;;;;;;;;0.00;0.00;;;;;13.40;80.00;99524.00;5081539;28;45646;-79
2021/10/30 06:31:53;;;;;;;;;0.00;0.00;;;;;13.17;79.93;99487.03;5074344;28;45573;-77
2021/10/30 06:34:19;;;;;;;;;0.00;0.00;;;;;13.30;79.94;99507.69;5081281;28;45337;-77
2021/10/30 06:36:44;;;;;;;;;0.50;0.00;;;;;13.25;80.01;99499.06;5070849;28;45429;-81
2021/10/30 06:39:10;;;;;;;;;0.00;0.00;;;;;13.15;79.78;99472.31;5084203;28;45245;-77
2021/10/30 06:41:35;;;;;;;;;0.00;0.00;;;;;13.29;79.66;99495.50;5084171;28;45386;-81
2021/10/30 06:44:00;;;;;;;;;0.00;0.00;;;;;13.41;79.89;99500.47;5083887;28;45420;-78
2021/10/30 06:46:27;;;;;;;;;0.00;0.00;;;;;13.50;79.83;99522.94;5084053;28;46363;-78
2021/10/30 06:48:56;;;;;;;;;0.00;0.00;;;;;13.49;79.84;99520.34;5066130;28;45370;-79
2021/10/30 06:51:22;;;;;;;;;0.00;0.00;;;;;13.41;80.40;99505.69;5077282;28;45579;-80
2021/10/30 06:53:48;;;;;;;;;1.25;0.00;;;;;13.41;79.27;99503.06;5081077;28;45502;-78
2021/10/30 06:56:13;;;;;;;;;0.00;0.00;;;;;13.53;79.86;99525.50;5082164;28;45381;-80
2021/10/30 06:58:38;;;;;;;;;0.00;0.00;;;;;13.31;80.09;99478.03;5082768;28;45329;-79
2021/10/30 07:01:04;;;;;;;;;0.00;0.00;;;;;13.43;79.75;99500.44;5062636;28;45243;-80
2021/10/30 07:03:29;;;;;;;;;0.00;0.00;;;;;13.55;79.91;99523.72;5064736;28;45300;-80
2021/10/30 07:05:55;;;;;;;;;0.00;0.00;;;;;13.28;79.71;99459.81;5064018;28;45326;-79
2021/10/30 07:08:20;;;;;;;;;0.00;0.00;;;;;13.51;79.51;99508.97;5045752;28;45437;-79
2021/10/30 07:10:45;;;;;;;;;0.00;0.00;;;;;13.40;79.59;99477.84;5064506;28;45209;-80
2021/10/30 07:13:11;;;;;;;;;0.00;0.00;;;;;13.37;79.95;99464.84;5064661;28;45470;-79
2021/10/30 07:15:37;;;;;;;;;0.00;0.00;;;;;13.41;79.11;99474.31;5064971;28;46385;-80
2021/10/30 07:18:03;;;;;;;;;0.00;0.00;;;;;13.37;79.55;99467.44;5062781;28;45346;-81
2021/10/30 07:20:28;;;;;;;;;0.00;0.00;;;;;13.40;79.03;99479.59;5064259;28;45733;-80
2021/10/30 07:22:53;;;;;;;;;0.00;0.00;;;;;13.54;79.09;99487.16;5064359;28;45295;-81
2021/10/30 07:25:20;;;;;;;;;0.00;0.00;;;;;13.68;78.84;99520.78;5063906;28;45924;-81
2021/10/30 07:27:47;;;;;;;;;0.00;0.00;;;;;13.72;79.18;99522.44;5046146;28;45501;-82
2021/10/30 07:30:13;;;;;;;;;0.00;0.00;;;;;13.73;79.11;99513.72;5064452;28;45517;-81
2021/10/30 07:32:39;;;;;;;;;0.00;0.00;;;;;13.59;79.11;99493.09;5073127;28;45421;-81
2021/10/30 07:35:05;;;;;;;;;0.25;0.00;;;;;13.68;78.95;99510.34;5083945;28;45382;-81
2021/10/30 07:37:31;;;;;;;;;0.00;0.00;;;;;13.76;78.97;99515.38;5084111;28;45331;-81
2021/10/30 07:39:58;;;;;;;;;0.25;0.00;;;;;13.49;78.94;99471.56;5083974;28;45232;-81
2021/10/30 07:42:24;;;;;;;;;0.00;0.00;;;;;13.63;78.96;99496.53;5083407;28;45512;-81
2021/10/30 07:44:49;;;;;;;;;1.00;0.00;;;;;13.83;78.68;99518.69;5085288;28;45437;-80
2021/10/30 07:47:15;;;;;;;;;0.00;0.00;;;;;13.85;78.54;99523.03;5084892;28;45295;-82
2021/10/30 07:49:41;;;;;;;;;0.50;0.00;;;;;13.65;78.59;99505.16;5084760;28;45330;-81
2021/10/30 07:52:09;;;;;;;;;0.00;0.00;;;;;13.34;78.33;99448.34;5084918;28;45346;-81
2021/10/30 07:54:36;;;;;;;;;0.00;0.00;;;;;13.89;78.41;99537.75;5083674;28;45274;-81
2021/10/30 07:57:03;;;;;;;;;0.00;0.00;;;;;13.87;78.18;99547.38;5064890;28;46271;-81
2021/10/30 07:59:31;;;;;;;;;0.00;0.00;;;;;13.87;78.23;99539.53;5066337;28;45402;-80
2021/10/30 08:01:57;;;;;;;;;0.00;0.00;;;;;13.87;78.37;99536.91;5063322;28;45354;-80
2021/10/30 08:04:23;;;;;;;;;0.00;0.00;;;;;13.78;78.02;99518.81;5063293;28;45344;-81
2021/10/30 08:06:48;;;;;;;;;0.00;0.00;;;;;13.95;78.18;99539.34;5044933;28;45321;-79
2021/10/30 08:09:13;;;;;;;;;0.00;0.00;;;;;13.86;77.91;99522.13;5062923;28;45845;-79
2021/10/30 08:11:39;;;;;;;;;0.00;0.00;;;;;14.06;77.85;99554.78;5062622;28;45249;-79
2021/10/30 08:14:04;;;;;;;;;0.00;0.00;;;;;13.80;78.06;99514.41;5062951;28;45256;-79
2021/10/30 08:16:30;;;;;;;;;0.00;0.00;;;;;14.11;77.77;99560.75;5062590;28;45283;-79
2021/10/30 08:18:56;;;;;;;;;0.00;0.00;;;;;14.02;77.97;99540.91;5063159;28;45237;-79
2021/10/30 08:21:22;;;;;;;;;0.00;0.00;;;;;13.92;77.81;99527.19;5062376;28;45477;-80
2021/10/30 08:23:49;;;;;;;;;0.00;0.00;;;;;14.15;77.76;99549.28;5062744;28;45352;-79
2021/10/30 08:26:15;;;;;;;;;0.00;0.00;;;;;14.06;77.52;99532.06;5062618;28;45373;-79
2021/10/30 08:28:40;;;;;;;;;1.00;0.00;;;;;14.31;77.60;99572.47;5062713;28;45328;-79
2021/10/30 08:31:07;;;;;;;;;0.00;0.00;;;;;14.41;77.55;99573.09;5062882;28;45464;-80
2021/10/30 08:33:32;;;;;;;;;0.00;0.00;;;;;14.41;77.35;99555.63;5081508;28;46185;-80
2021/10/30 08:35:58;;;;;;;;;0.00;0.00;;;;;14.40;76.92;99542.59;5082929;28;45275;-80
2021/10/30 08:38:23;;;;;;;;;0.00;0.00;;;;;14.60;76.86;99570.84;5083175;28;45303;-80
2021/10/30 08:40:49;;;;;;;;;0.00;0.00;;;;;14.07;77.09;99478.00;5083893;28;45266;-81
2021/10/30 08:43:23;;;;;;;;;0.00;0.00;;;;;14.63;76.60;99548.94;5082440;28;45761;-81
2021/10/30 08:45:50;;;;;;;;;0.00;0.00;;;;;14.35;76.64;99485.09;5082727;28;45503;-81
2021/10/30 08:48:18;;;;;;;;;0.25;0.00;;;;;14.66;76.28;99530.53;5082371;28;45315;-80
2021/10/30 08:50:43;;;;;;;;;0.00;0.00;;;;;14.84;76.19;99567.63;5064960;28;45506;-81
2021/10/30 08:53:09;;;;;;;;;0.00;0.00;;;;;14.84;76.17;99567.63;5082661;28;46276;-80
2021/10/30 08:55:35;;;;;;;;;0.00;0.00;;;;;14.62;76.30;99537.63;5082759;28;45355;-80
2021/10/30 08:58:11;;;;;;;;;0.00;0.00;;;;;14.64;76.06;99538.44;5082813;28;45426;-80
2021/10/30 09:00:42;;;;;;;;;0.00;0.00;;;;;14.40;75.91;99512.00;5083009;28;45429;-80
2021/10/30 09:03:13;;;;;;;;;1.00;0.00;;;;;14.53;76.39;99536.13;5081837;28;45326;-80
2021/10/30 09:05:41;;;;;;;;;0.00;0.00;;;;;14.74;76.49;99575.72;5082541;28;45271;-81
2021/10/30 09:08:08;;;;;;;;;0.00;0.00;;;;;14.76;76.62;99580.94;5082972;28;45251;-80
2021/10/30 09:10:36;;;;;;;;;0.00;0.00;;;;;14.66;76.58;99556.72;5082945;28;45457;-81
2021/10/30 09:13:09;;;;;;;;;0.00;0.00;;;;;14.69;76.54;99561.88;5064056;28;46214;-81
2021/10/30 09:15:37;;;;;;;;;0.00;0.00;;;;;14.76;76.10;99560.81;5083561;28;45323;-80
2021/10/30 09:18:27;;;;;;;;;0.00;0.00;;;;;14.70;76.72;99558.34;5063898;28;45267;-81
2021/10/30 09:20:53;;;;;;;;;0.00;0.00;;;;;14.76;76.41;99557.34;5083783;28;45430;-81
2021/10/30 09:23:27;;;;;;;;;0.00;0.00;;;;;14.60;76.59;99547.28;5089260;28;46169;-79
2021/10/30 09:26:03;;;;;;;;;0.00;0.00;;;;;14.78;76.41;99566.91;5070876;28;45769;-81
2021/10/30 09:28:31;;;;;;;;;0.75;0.00;;;;;14.79;76.66;99578.22;5070695;28;45502;-81
2021/10/30 09:31:02;;;;;;;;;0.00;0.00;;;;;14.75;76.73;99582.66;5091787;28;45548;-80
2021/10/30 09:33:30;;;;;;;;;0.00;0.00;;;;;14.55;76.48;99555.25;5089645;28;45372;-82
2021/10/30 09:35:56;;;;;;;;;0.00;0.00;;;;;14.65;77.12;99575.97;5089485;28;45439;-81
2021/10/30 09:38:33;;;;;;;;;0.00;0.00;;;;;14.59;77.35;99574.38;5088559;28;45339;-80
2021/10/30 09:41:04;;;;;;;;;0.00;0.00;;;;;14.66;77.39;99596.88;5089393;28;45303;-81
2021/10/30 09:43:30;;;;;;;;;0.00;0.00;;;;;14.62;77.57;99586.53;5070791;28;48378;-81
2021/10/30 09:46:04;;;;;;;;;0.00;0.00;;;;;14.56;77.75;99591.03;5088726;28;45357;-81
2021/10/30 09:48:32;;;;;;;;;0.00;0.00;;;;;14.37;78.16;99554.00;5089080;28;45383;-80
2021/10/30 09:50:59;;;;;;;;;0.00;0.00;;;;;14.56;78.48;99585.81;5090297;28;45358;-80
2021/10/30 09:53:28;;;;;;;;;0.00;0.00;;;;;14.57;78.46;99587.50;5087821;28;47078;-80
2021/10/30 09:55:57;;;;;;;;;0.25;0.00;;;;;14.61;78.67;99596.13;5088042;28;45357;-81
2021/10/30 09:58:30;;;;;;;;;0.00;0.00;;;;;14.49;78.23;99573.75;5089011;28;45334;-81
2021/10/30 10:00:59;;;;;;;;;0.00;0.00;;;;;14.42;78.65;99572.19;5089297;28;45308;-80
2021/10/30 10:03:27;;;;;;;;;0.00;0.00;;;;;14.56;78.48;99583.19;5089065;28;45222;-82
2021/10/30 10:05:54;;;;;;;;;0.00;0.00;;;;;14.49;78.83;99572.91;5088704;28;45207;-80
2021/10/30 10:08:20;;;;;;;;;0.00;0.00;;;;;14.58;78.74;99585.75;5089085;28;45413;-83
2021/10/30 10:10:45;;;;;;;;;0.00;0.00;;;;;14.48;78.41;99569.41;5089089;28;45297;-82
2021/10/30 10:13:11;;;;;;;;;0.00;0.00;;;;;14.57;78.83;99595.38;5088299;28;45318;-81
2021/10/30 10:15:40;;;;;;;;;0.00;0.00;;;;;14.23;78.60;99546.50;5088719;28;45295;-81
2021/10/30 10:18:06;;;;;;;;;0.00;0.00;;;;;14.51;79.00;99599.88;5088160;28;45298;-81
2021/10/30 10:20:32;;;;;;;;;0.00;0.00;;;;;14.44;79.17;99593.97;5088907;28;45235;-82
2021/10/30 10:22:58;;;;;;;;;0.00;0.00;;;;;14.46;79.31;99596.53;5087305;28;47080;-81
2021/10/30 10:25:33;;;;;;;;;0.00;0.00;;;;;14.36;79.44;99582.84;5088291;28;45436;-81
2021/10/30 10:28:21;;;;;;;;;0.75;0.75;;;;;14.55;79.27;99607.63;5070159;28;45403;-80
2021/10/30 10:31:12;;;;;;;;;0.00;0.00;;;;;14.50;79.35;99590.31;5089440;28;45292;-81
2021/10/30 10:33:39;;;;;;;;;0.00;0.00;;;;;14.62;79.55;99607.47;5048135;28;47359;-81
2021/10/30 10:36:13;;;;;;;;;0.00;0.00;;;;;14.62;79.24;99610.97;5046316;28;45397;-80
2021/10/30 10:38:57;;;;;;;;;0.00;0.00;;;;;14.65;79.12;99610.00;5064386;28;45543;-81
2021/10/30 10:41:44;;;;;;;;;0.00;0.00;;;;;14.69;78.88;99607.28;5064322;28;45311;-80
2021/10/30 10:44:36;;;;;;;;;0.00;0.00;;;;;14.74;78.59;99603.66;5046084;28;48123;-82
2021/10/30 10:47:04;;;;;;;;;0.00;0.00;;;;;14.78;78.49;99603.59;5054243;28;45277;-81
2021/10/30 10:49:33;;;;;;;;;0.00;0.00;;;;;14.80;78.10;99607.00;5064634;28;45469;-82
2021/10/30 10:52:22;;;;;;;;;0.00;0.00;;;;;14.75;78.26;99582.66;5064756;28;45599;-81
2021/10/30 10:54:56;;;;;;;;;0.00;0.00;;;;;14.94;78.37;99605.78;5062861;28;48147;-81
2021/10/30 10:57:24;;;;;;;;;0.00;0.00;;;;;14.95;77.92;99608.34;5046313;28;45272;-82
2021/10/30 11:00:05;;;;;;;;;0.00;0.00;;;;;14.95;77.92;99607.50;5065248;28;45347;-80
2021/10/30 11:02:36;;;;;;;;;0.00;0.00;;;;;14.67;77.73;99561.91;5064615;28;45307;-79
2021/10/30 11:05:07;;;;;;;;;0.00;0.00;;;;;14.98;78.19;99596.06;5064006;28;45368;-79
2021/10/30 11:07:51;;;;;;;;;0.00;0.00;;;;;14.92;77.91;99605.81;5064900;28;45249;-80
2021/10/30 11:10:21;;;;;;;;;0.00;0.00;;;;;14.73;77.82;99571.38;5064015;28;45200;-80
2021/10/30 11:13:00;;;;;;;;;0.00;0.00;;;;;14.94;77.83;99601.41;5064476;28;45288;-80
2021/10/30 11:15:27;;;;;;;;;0.00;0.00;;;;;14.85;78.04;99590.31;5045932;28;47294;-80
2021/10/30 11:18:06;;;;;;;;;0.00;0.00;;;;;14.84;78.08;99581.59;5045467;28;45224;-80
2021/10/30 11:20:44;;;;;;;;;0.00;0.00;;;;;15.04;78.32;99602.00;5063946;28;45441;-80
2021/10/30 11:23:20;;;;;;;;;0.25;0.00;;;;;15.12;77.89;99603.53;5064153;28;45569;-80
2021/10/30 11:26:11;;;;;;;;;0.00;0.00;;;;;14.99;77.92;99579.44;5062410;28;46467;-80
2021/10/30 11:28:40;;;;;;;;;0.00;0.00;;;;;15.05;78.35;99571.41;5045639;28;45361;-80
2021/10/30 11:31:14;;;;;;;;;0.00;0.00;;;;;15.02;78.05;99572.38;5063962;28;45298;-80
2021/10/30 11:33:43;;;;;;;;;0.00;0.00;;;;;15.18;78.02;99588.50;5081626;28;45641;-80
2021/10/30 11:36:11;;;;;;;;;0.00;0.00;;;;;15.18;78.16;99601.59;5083350;28;45369;-81